Time;durP1;ratioP1;P1;durP2;ratioP2;P2;SDS_P1;SDS_P2;PMS_P1;PMS_P2;Temp;Humidity;BMP_temperature;BMP_pressure;BME280_temperature;BME280_humidity;BME280_pressure;Samples;Min_cycle;Max_cycle;Signal;HPM_P1;HPM_P2
2022/06/01 06:02:01;;;;;;;21.27;12.95;;;;;;;;;;10516832;28;20428;-82
2022/06/01 06:07:02;;;;;;;7.45;4.43;;;;;;;;;;10521915;28;20040;-81
2022/06/01 06:12:04;;;;;;;6.47;4.75;;;;;;;;;;10527456;28;20096;-81
2022/06/01 06:17:05;;;;;;;11.98;7.45;;;;;;;;;;10525052;28;20029;-81
2022/06/01 06:22:06;;;;;;;15.68;11.77;;;;;;;;;;10508101;28;20103;-83
2022/06/01 06:27:07;;;;;;;11.18;9.23;;;;;;;;;;10501979;28;20103;-83
2022/06/01 06:32:09;;;;;;;15.45;11.25;;;;;;;;;;10503820;28;20032;-84
2022/06/01 06:37:10;;;;;;;15.77;12.38;;;;;;;;;;10504266;28;20025;-84
2022/06/01 06:42:11;;;;;;;17.08;11.52;;;;;;;;;;10504143;28;20025;-84
2022/06/01 06:47:12;;;;;;;12.15;10.52;;;;;;;;;;10504248;28;20034;-83
2022/06/01 06:52:13;;;;;;;13.90;11.73;;;;;;;;;;10503294;28;20041;-83
2022/06/01 06:57:14;;;;;;;13.40;10.20;;;;;;;;;;10503179;28;20017;-83
2022/06/01 07:02:16;;;;;;;4.10;3.03;;;;;;;;;;10501670;28;20056;-81
2022/06/01 07:07:17;;;;;;;4.72;2.97;;;;;;;;;;10504783;28;20020;-81
2022/06/01 07:12:18;;;;;;;5.75;3.80;;;;;;;;;;10468918;28;20025;-83
2022/06/01 07:17:19;;;;;;;7.97;5.00;;;;;;;;;;10482197;28;20057;-83
2022/06/01 07:22:20;;;;;;;5.80;3.50;;;;;;;;;;10481535;28;20028;-82
2022/06/01 07:27:21;;;;;;;5.57;3.90;;;;;;;;;;10480219;28;20029;-82
2022/06/01 07:32:24;;;;;;;4.38;3.30;;;;;;;;;;10476922;28;20027;-83
2022/06/01 07:48:06;;;;;;;5.30;3.70;;;;;;;;;;10473841;28;20037;-81
2022/06/01 07:53:08;;;;;;;8.35;6.60;;;;;;;;;;10470136;28;20025;-82
2022/06/01 07:58:09;;;;;;;6.25;5.63;;;;;;;;;;10466983;28;20132;-81
2022/06/01 08:03:11;;;;;;;5.68;4.55;;;;;;;;;;10463997;28;20036;-80
2022/06/01 08:08:13;;;;;;;6.18;4.40;;;;;;;;;;10464316;28;20134;-80
2022/06/01 08:13:14;;;;;;;6.32;4.95;;;;;;;;;;10464665;28;20021;-80
2022/06/01 08:18:16;;;;;;;8.55;6.38;;;;;;;;;;10463436;28;20040;-81
2022/06/01 08:23:18;;;;;;;6.57;5.70;;;;;;;;;;10464151;28;20028;-82
2022/06/01 08:28:19;;;;;;;11.50;8.02;;;;;;;;;;10462743;28;20123;-81
2022/06/01 08:33:20;;;;;;;7.57;5.45;;;;;;;;;;10460873;28;20392;-82
2022/06/01 08:38:21;;;;;;;3.60;2.78;;;;;;;;;;10466196;28;20124;-83
2022/06/01 08:43:25;;;;;;;5.43;4.13;;;;;;;;;;10466020;28;20051;-83
2022/06/01 08:48:33;;;;;;;6.55;4.03;;;;;;;;;;10465953;28;20040;-83
2022/06/01 08:53:36;;;;;;;5.72;4.50;;;;;;;;;;10476779;28;20033;-84
2022/06/01 08:58:42;;;;;;;4.72;4.10;;;;;;;;;;10468134;28;20037;-84
2022/06/01 09:03:51;;;;;;;3.85;3.38;;;;;;;;;;10466954;28;20067;-84
2022/06/01 09:09:05;;;;;;;3.75;3.00;;;;;;;;;;10466016;28;20029;-84
2022/06/01 09:14:11;;;;;;;3.85;3.08;;;;;;;;;;10465428;28;20031;-83
2022/06/01 09:19:24;;;;;;;3.30;2.60;;;;;;;;;;10465207;28;20033;-83
2022/06/01 09:24:32;;;;;;;3.15;2.80;;;;;;;;;;10464450;28;20444;-82
2022/06/01 09:29:34;;;;;;;3.47;2.17;;;;;;;;;;10464074;28;20438;-83
2022/06/01 09:34:43;;;;;;;2.53;2.22;;;;;;;;;;10488179;28;20092;-82
2022/06/01 09:39:58;;;;;;;3.35;2.88;;;;;;;;;;10481473;28;20025;-82
2022/06/01 09:45:00;;;;;;;3.20;1.98;;;;;;;;;;10465541;28;20021;-83
2022/06/01 09:50:01;;;;;;;3.67;2.33;;;;;;;;;;10474392;28;20033;-80
2022/06/01 09:55:12;;;;;;;2.58;1.92;;;;;;;;;;10467275;28;20044;-79
2022/06/01 10:11:05;;;;;;;2.40;1.80;;;;;;;;;;10485150;28;20085;-82
2022/06/01 10:16:27;;;;;;;3.00;2.22;;;;;;;;;;10483514;28;20080;-84
2022/06/01 10:21:31;;;;;;;3.33;2.88;;;;;;;;;;10485538;28;20033;-84
2022/06/01 10:26:34;;;;;;;3.90;2.17;;;;;;;;;;10483591;28;20100;-83
2022/06/01 10:31:41;;;;;;;3.15;2.00;;;;;;;;;;10469193;28;20029;-83
2022/06/01 10:36:45;;;;;;;3.80;2.42;;;;;;;;;;10491677;28;20033;-84
2022/06/01 10:41:58;;;;;;;2.85;2.00;;;;;;;;;;10494212;28;20021;-83
2022/06/01 10:47:10;;;;;;;2.63;2.22;;;;;;;;;;10502401;28;20089;-85
2022/06/01 10:52:11;;;;;;;4.38;3.30;;;;;;;;;;10486829;28;20024;-85
2022/06/01 10:57:17;;;;;;;4.88;2.90;;;;;;;;;;10483565;28;20036;-84
2022/06/01 11:02:30;;;;;;;7.32;3.95;;;;;;;;;;10485136;28;20479;-84
2022/06/01 11:07:54;;;;;;;4.05;3.10;;;;;;;;;;10486511;28;20024;-82
2022/06/01 11:13:13;;;;;;;3.33;2.40;;;;;;;;;;10470631;28;20033;-82
2022/06/01 11:18:25;;;;;;;3.92;2.95;;;;;;;;;;10481962;28;20029;-83
2022/06/01 11:23:44;;;;;;;2.85;2.30;;;;;;;;;;10479104;28;20029;-81
2022/06/01 11:29:07;;;;;;;3.67;2.30;;;;;;;;;;10482464;28;20040;-82
2022/06/01 11:34:19;;;;;;;5.82;2.88;;;;;;;;;;10475083;28;20032;-83
2022/06/01 11:39:24;;;;;;;2.85;2.35;;;;;;;;;;10499717;28;20096;-82
2022/06/01 11:44:34;;;;;;;7.68;4.22;;;;;;;;;;10510364;28;20040;-88
2022/06/01 11:49:35;;;;;;;;;;;;;;;;;;10509897;28;20047;-84
2022/06/01 11:54:36;;;;;;;3.10;2.22;;;;;;;;;;10510035;28;19931;-82
2022/06/01 11:59:58;;;;;;;4.82;2.25;;;;;;;;;;10508310;28;20045;-82
2022/06/01 12:05:08;;;;;;;5.90;3.25;;;;;;;;;;10510522;28;20101;-83
2022/06/01 12:10:18;;;;;;;4.20;2.35;;;;;;;;;;10501816;28;20036;-80
2022/06/01 12:15:34;;;;;;;3.85;1.55;;;;;;;;;;10494722;28;20044;-79
2022/06/01 12:20:35;;;;;;;2.88;1.70;;;;;;;;;;10507411;28;20058;-82
2022/06/01 12:31:10;;;;;;;4.03;2.20;;;;;;;;;;10472620;28;20068;-83
2022/06/01 12:36:12;;;;;;;2.22;1.58;;;;;;;;;;10462953;28;20021;-81
2022/06/01 12:41:18;;;;;;;5.05;2.42;;;;;;;;;;10465399;28;20033;-82
2022/06/01 12:46:21;;;;;;;9.95;2.85;;;;;;;;;;10474912;28;20082;-79
2022/06/01 12:51:22;;;;;;;4.70;1.88;;;;;;;;;;10496879;28;20039;-79
2022/06/01 12:56:27;;;;;;;3.92;1.92;;;;;;;;;;10490185;28;20021;-80
2022/06/01 13:01:32;;;;;;;3.22;1.83;;;;;;;;;;10471480;28;20112;-80
2022/06/01 13:06:34;;;;;;;4.28;2.95;;;;;;;;;;10477172;28;20067;-79
2022/06/01 13:11:36;;;;;;;3.85;1.70;;;;;;;;;;10484472;28;20376;-79
2022/06/01 13:16:40;;;;;;;2.85;1.85;;;;;;;;;;10487673;28;20108;-79
2022/06/01 13:21:42;;;;;;;3.53;2.10;;;;;;;;;;10470673;28;20104;-78
2022/06/01 13:26:45;;;;;;;3.58;2.08;;;;;;;;;;10475590;28;20029;-79
2022/06/01 13:31:50;;;;;;;2.60;2.10;;;;;;;;;;10465157;28;20033;-79
2022/06/01 13:36:52;;;;;;;2.78;1.92;;;;;;;;;;10468495;28;20028;-79
2022/06/01 13:41:56;;;;;;;2.45;1.85;;;;;;;;;;10486078;28;20021;-79
2022/06/01 13:47:01;;;;;;;3.88;2.20;;;;;;;;;;10490092;28;20032;-79
2022/06/01 13:52:04;;;;;;;2.50;1.90;;;;;;;;;;10497248;28;20071;-79
2022/06/01 13:57:16;;;;;;;3.72;1.30;;;;;;;;;;10500163;28;20092;-79
2022/06/01 14:02:22;;;;;;;2.70;1.33;;;;;;;;;;10503927;28;20033;-86
2022/06/01 14:07:23;;;;;;;2.83;1.77;;;;;;;;;;10503473;28;20017;-82
2022/06/01 14:12:24;;;;;;;2.35;1.30;;;;;;;;;;10503678;28;20028;-84
2022/06/01 14:17:27;;;;;;;3.50;2.03;;;;;;;;;;10502020;28;20013;-82
2022/06/01 14:22:28;;;;;;;7.10;4.07;;;;;;;;;;10507188;28;20038;-79
2022/06/01 14:32:49;;;;;;;3.28;2.90;;;;;;;;;;10508862;28;20068;-80
2022/06/01 14:37:50;;;;;;;4.50;3.38;;;;;;;;;;10498864;28;20087;-80
2022/06/01 14:42:51;;;;;;;4.25;2.95;;;;;;;;;;10465577;28;20121;-81
2022/06/01 14:47:53;;;;;;;42.03;35.53;;;;;;;;;;10466569;28;20024;-81
2022/06/01 14:52:54;;;;;;;4.60;2.90;;;;;;;;;;10475512;28;20039;-84
2022/06/01 14:57:55;;;;;;;2.90;2.53;;;;;;;;;;10512462;28;20071;-84
2022/06/01 15:02:56;;;;;;;3.58;3.00;;;;;;;;;;10511274;28;20020;-81
2022/06/01 15:07:57;;;;;;;3.60;2.83;;;;;;;;;;10510150;28;20036;-81
2022/06/01 15:12:59;;;;;;;3.58;2.50;;;;;;;;;;10496033;28;20044;-82
2022/06/01 15:18:00;;;;;;;4.30;3.60;;;;;;;;;;10474769;28;20028;-83
2022/06/01 15:23:01;;;;;;;3.25;2.65;;;;;;;;;;10475473;28;20116;-83
2022/06/01 15:28:03;;;;;;;2.85;2.22;;;;;;;;;;10474653;28;20450;-82
2022/06/01 15:44:06;;;;;;;2.57;2.30;;;;;;;;;;10471958;28;20028;-83
2022/06/01 15:49:08;;;;;;;3.67;2.83;;;;;;;;;;10468490;28;20021;-83
2022/06/01 15:54:09;;;;;;;2.50;2.10;;;;;;;;;;10503051;28;20036;-82
2022/06/01 15:59:11;;;;;;;3.00;2.30;;;;;;;;;;10509011;28;20013;-82
2022/06/01 16:04:12;;;;;;;2.72;2.20;;;;;;;;;;10509910;28;20020;-84
2022/06/01 16:09:13;;;;;;;2.70;1.98;;;;;;;;;;10509130;28;20032;-83
2022/06/01 16:14:14;;;;;;;3.03;2.50;;;;;;;;;;10509447;28;20013;-83
2022/06/01 16:19:17;;;;;;;2.85;2.00;;;;;;;;;;10508004;28;20020;-87
2022/06/01 16:24:27;;;;;;;3.50;3.13;;;;;;;;;;10509477;28;20021;-85
2022/06/01 16:29:28;;;;;;;3.78;3.38;;;;;;;;;;10509255;28;20092;-86
2022/06/01 16:34:30;;;;;;;4.15;2.60;;;;;;;;;;10508724;28;20017;-88
2022/06/01 16:39:31;;;;;;;2.83;2.55;;;;;;;;;;10509107;28;20017;-87
2022/06/01 16:44:32;;;;;;;2.58;1.95;;;;;;;;;;10505076;28;20037;-86
2022/06/01 16:49:33;;;;;;;2.58;2.35;;;;;;;;;;10508001;28;20033;-83
2022/06/01 16:54:35;;;;;;;2.88;2.53;;;;;;;;;;10506800;28;20041;-88
2022/06/01 16:59:37;;;;;;;2.92;2.15;;;;;;;;;;10480216;28;20061;-84
2022/06/01 17:04:38;;;;;;;2.90;2.58;;;;;;;;;;10468781;28;20039;-85
2022/06/01 17:09:42;;;;;;;3.58;2.83;;;;;;;;;;10485522;28;20037;-86
2022/06/01 17:14:43;;;;;;;2.90;2.38;;;;;;;;;;10500413;28;20047;-86
2022/06/01 17:19:44;;;;;;;2.83;2.47;;;;;;;;;;10507927;28;20067;-86
2022/06/01 17:24:45;;;;;;;3.65;2.80;;;;;;;;;;10504923;28;20023;-87
2022/06/01 17:29:46;;;;;;;1.77;1.45;;;;;;;;;;10499511;28;20045;-83
2022/06/01 17:34:47;;;;;;;2.65;1.80;;;;;;;;;;10496461;28;20052;-84
2022/06/01 17:39:48;;;;;;;1.92;1.70;;;;;;;;;;10488878;28;20060;-83
2022/06/01 17:44:49;;;;;;;3.13;2.15;;;;;;;;;;10486008;28;20508;-83
2022/06/01 17:49:51;;;;;;;1.58;1.23;;;;;;;;;;10486067;28;20502;-84
2022/06/01 17:54:52;;;;;;;2.55;2.13;;;;;;;;;;10469200;28;20046;-83
2022/06/01 17:59:53;;;;;;;3.03;2.30;;;;;;;;;;10466038;28;20127;-84
2022/06/01 18:04:54;;;;;;;2.30;1.70;;;;;;;;;;10464583;28;20032;-84
2022/06/01 18:09:55;;;;;;;2.05;1.55;;;;;;;;;;10488389;28;20023;-86
2022/06/01 18:14:56;;;;;;;3.20;2.33;;;;;;;;;;10504927;28;20074;-87
2022/06/01 18:19:57;;;;;;;4.32;2.13;;;;;;;;;;10505220;28;20013;-89
2022/06/01 18:24:58;;;;;;;2.92;2.47;;;;;;;;;;10505659;28;20025;-88
2022/06/01 18:29:59;;;;;;;2.63;1.30;;;;;;;;;;10505423;28;20092;-87
2022/06/01 18:35:03;;;;;;;3.72;2.65;;;;;;;;;;10499163;28;20028;-84
2022/06/01 18:40:04;;;;;;;2.63;2.00;;;;;;;;;;10479412;28;20032;-84
2022/06/01 18:45:06;;;;;;;3.05;2.47;;;;;;;;;;10499778;28;20035;-84
2022/06/01 18:50:08;;;;;;;3.13;2.03;;;;;;;;;;10481385;28;20040;-88
2022/06/01 18:55:09;;;;;;;2.10;1.48;;;;;;;;;;10505195;28;20020;-86
2022/06/01 19:05:32;;;;;;;2.45;1.50;;;;;;;;;;10485315;28;20044;-84
2022/06/01 19:15:44;;;;;;;2.80;1.80;;;;;;;;;;10981166;22;20266;-85
2022/06/01 19:20:45;;;;;;;3.22;2.13;;;;;;;;;;10444114;28;20041;-84
2022/06/01 19:25:46;;;;;;;2.67;1.70;;;;;;;;;;10440236;28;20040;-84
